Terminal Aerodrome Forecast
Issued by NWS

Home | Current Version | Previous Version | Text Only | Print | Product List | Glossary On
Versions: 1 2 3 4 5 6 7 8 9 10 11 12 13 14 15 16 17 18 19 20
000
FTUS43 KLSX 231138
TAFCPS
TAF
KCPS 231138Z 2312/2412 32012KT P6SM OVC014
     FM232100 32008KT P6SM OVC022
     FM240300 VRB03KT P6SM BKN030
     FM240600 VRB03KT P6SM SCT150=

USA.gov is the U.S. government's official web portal to all federal, state and local government web resources and services.